createdAt,value
2018-10-03T00:00:01.028Z,84.00
2018-10-03T00:00:40.112Z,84.10
2018-10-03T00:01:18.525Z,84.20
2018-10-03T00:01:58.143Z,84.30
2018-10-03T00:02:36.593Z,84.40
2018-10-03T00:03:15.487Z,84.40
2018-10-03T00:03:56.149Z,84.20
2018-10-03T00:04:34.887Z,82.90
2018-10-03T00:05:15.683Z,82.90
2018-10-03T00:05:54.380Z,83.20
2018-10-03T00:06:33.009Z,83.40
2018-10-03T00:07:11.483Z,83.70
2018-10-03T00:07:50.391Z,83.90
2018-10-03T00:08:29.866Z,84.10
2018-10-03T00:09:10.640Z,84.20
2018-10-03T00:09:49.278Z,84.30
2018-10-03T00:10:28.190Z,84.40
2018-10-03T00:11:06.793Z,84.50
2018-10-03T00:11:47.079Z,84.40
2018-10-03T00:12:25.637Z,84.40
2018-10-03T00:13:05.485Z,84.50
2018-10-03T00:13:44.181Z,83.90
2018-10-03T00:14:23.618Z,82.80
2018-10-03T00:15:03.519Z,83.10
2018-10-03T00:15:42.090Z,83.40
2018-10-03T00:16:21.111Z,83.70
2018-10-03T00:16:59.719Z,83.90
2018-10-03T00:17:39.743Z,84.00
2018-10-03T00:18:19.582Z,84.20
2018-10-03T00:18:58.187Z,84.20
2018-10-03T00:19:36.640Z,84.40
2018-10-03T00:20:15.173Z,84.30
2018-10-03T00:20:53.575Z,84.50
2018-10-03T00:21:32.446Z,84.60
2018-10-03T00:22:11.259Z,83.80
2018-10-03T00:22:49.952Z,82.80
2018-10-03T00:23:28.456Z,83.00
2018-10-03T00:24:06.834Z,83.10
2018-10-03T00:24:45.652Z,83.20
2018-10-03T00:25:24.154Z,83.40
2018-10-03T00:26:03.990Z,83.70
2018-10-03T00:26:42.378Z,83.80
2018-10-03T00:27:21.786Z,84.10
2018-10-03T00:28:00.086Z,84.10
2018-10-03T00:28:38.044Z,84.30
2018-10-03T00:29:16.057Z,84.30
2018-10-03T00:29:53.893Z,84.40
2018-10-03T00:30:31.885Z,83.50
2018-10-03T00:31:10.112Z,82.00
2018-10-03T00:31:47.916Z,81.10
2018-10-03T00:32:25.852Z,81.20
2018-10-03T00:33:03.759Z,81.50
2018-10-03T00:33:41.885Z,82.00
2018-10-03T00:34:19.854Z,82.30
2018-10-03T00:34:57.738Z,82.60
2018-10-03T00:35:35.677Z,82.70
2018-10-03T00:36:13.603Z,82.90
2018-10-03T00:36:51.488Z,83.20
2018-10-03T00:37:29.424Z,83.20
2018-10-03T00:38:07.445Z,83.40
2018-10-03T00:38:45.399Z,83.60
2018-10-03T00:39:23.351Z,83.40
2018-10-03T00:40:03.427Z,82.30
2018-10-03T00:40:41.305Z,81.90
2018-10-03T00:41:19.337Z,82.10
2018-10-03T00:41:57.476Z,82.40
2018-10-03T00:42:35.319Z,82.70
2018-10-03T00:43:13.298Z,83.00
2018-10-03T00:43:51.470Z,83.20
2018-10-03T00:44:30.032Z,83.50
2018-10-03T00:45:08.694Z,83.50
2018-10-03T00:45:46.835Z,83.80
2018-10-03T00:46:24.923Z,83.70
2018-10-03T00:47:02.892Z,83.80
2018-10-03T00:47:41.447Z,83.50
2018-10-03T00:48:19.557Z,83.50
2018-10-03T00:48:57.912Z,83.70
2018-10-03T00:49:36.196Z,83.80
2018-10-03T00:50:14.766Z,83.60
2018-10-03T00:50:53.338Z,83.70
2018-10-03T00:51:31.922Z,83.70
2018-10-03T00:52:10.422Z,83.80
2018-10-03T00:52:48.968Z,84.00
2018-10-03T00:53:27.225Z,84.00
2018-10-03T00:54:05.729Z,84.10
2018-10-03T00:54:44.155Z,84.10
2018-10-03T00:55:22.530Z,84.10
2018-10-03T00:56:02.269Z,84.10
2018-10-03T00:56:40.476Z,84.10
2018-10-03T00:57:18.594Z,84.00
2018-10-03T00:57:57.011Z,84.10
2018-10-03T00:58:35.587Z,84.10
2018-10-03T00:59:14.258Z,84.00
2018-10-03T00:59:52.497Z,84.00
2018-10-03T01:00:31.165Z,83.90
2018-10-03T01:01:09.737Z,83.90
2018-10-03T01:01:48.280Z,83.90
2018-10-03T01:02:27.655Z,83.90
2018-10-03T01:03:06.030Z,83.90
2018-10-03T01:03:44.432Z,83.90
2018-10-03T01:04:24.188Z,83.90
2018-10-03T01:05:02.420Z,83.90
2018-10-03T01:05:40.599Z,84.00
2018-10-03T01:06:18.951Z,84.10
2018-10-03T01:06:57.160Z,84.00
2018-10-03T01:07:35.025Z,83.90
2018-10-03T01:08:13.536Z,84.00
2018-10-03T01:08:51.762Z,83.90
2018-10-03T01:09:30.868Z,84.00
2018-10-03T01:10:09.225Z,84.00
2018-10-03T01:10:47.857Z,84.10
2018-10-03T01:11:25.936Z,84.00
2018-10-03T01:12:03.941Z,84.00
2018-10-03T01:12:41.855Z,83.90
2018-10-03T01:13:20.470Z,84.10
2018-10-03T01:13:58.424Z,84.00
2018-10-03T01:14:36.520Z,84.10
2018-10-03T01:15:14.503Z,84.10
2018-10-03T01:15:54.712Z,84.10
2018-10-03T01:16:33.556Z,84.10
2018-10-03T01:17:11.596Z,84.10
2018-10-03T01:17:51.548Z,84.60
2018-10-03T01:18:29.902Z,84.10
2018-10-03T01:19:09.175Z,84.00
2018-10-03T01:19:47.094Z,84.00
2018-10-03T01:20:25.290Z,84.20
2018-10-03T01:21:03.464Z,84.10
2018-10-03T01:21:44.357Z,84.60
2018-10-03T01:22:22.244Z,84.10
2018-10-03T01:23:01.162Z,84.20
2018-10-03T01:23:39.190Z,84.20
2018-10-03T01:24:17.711Z,84.10
2018-10-03T01:24:57.206Z,84.20
2018-10-03T01:25:35.848Z,84.20
2018-10-03T01:26:13.769Z,84.20
2018-10-03T01:26:51.707Z,84.00
2018-10-03T01:27:31.832Z,84.20
2018-10-03T01:28:09.780Z,84.00
2018-10-03T01:28:48.687Z,84.10
2018-10-03T01:29:26.703Z,84.10
2018-10-03T01:30:04.843Z,84.10
2018-10-03T01:30:43.119Z,84.10
2018-10-03T01:31:21.079Z,84.10
2018-10-03T01:32:00.128Z,84.10
2018-10-03T01:32:38.672Z,84.20
2018-10-03T01:33:17.985Z,84.00
2018-10-03T01:33:57.373Z,84.10
2018-10-03T01:34:36.781Z,84.20
2018-10-03T01:35:16.043Z,84.10
2018-10-03T01:35:54.414Z,84.20
2018-10-03T01:36:33.215Z,84.20
2018-10-03T01:37:11.899Z,84.20
2018-10-03T01:37:50.332Z,84.20
2018-10-03T01:38:29.002Z,84.20
2018-10-03T01:39:08.638Z,84.20
2018-10-03T01:39:47.750Z,84.20
2018-10-03T01:40:25.931Z,84.30
2018-10-03T01:41:04.637Z,84.20
2018-10-03T01:41:43.233Z,84.20
2018-10-03T01:42:21.699Z,84.20
2018-10-03T01:43:00.374Z,84.20
2018-10-03T01:43:38.979Z,84.20
2018-10-03T01:44:17.378Z,84.20
2018-10-03T01:44:55.912Z,84.30
2018-10-03T01:45:34.393Z,84.20
2018-10-03T01:46:14.446Z,84.20
2018-10-03T01:46:53.691Z,84.20
2018-10-03T01:47:32.289Z,84.20
2018-10-03T01:48:12.285Z,84.10
2018-10-03T01:48:53.584Z,84.10
2018-10-03T01:49:31.862Z,84.20
2018-10-03T01:50:10.584Z,84.20
2018-10-03T01:50:49.185Z,84.30
2018-10-03T01:51:27.644Z,84.30
2018-10-03T01:52:06.443Z,84.30
2018-10-03T01:52:45.019Z,84.20
2018-10-03T01:53:23.534Z,84.30
2018-10-03T01:54:02.085Z,84.20
2018-10-03T01:54:40.559Z,84.20
2018-10-03T01:55:19.063Z,84.20
2018-10-03T01:55:58.714Z,84.20
2018-10-03T01:56:37.358Z,84.20
2018-10-03T01:57:16.504Z,84.20
2018-10-03T01:57:56.035Z,84.20
2018-10-03T01:58:35.061Z,84.20
2018-10-03T01:59:14.432Z,84.20
2018-10-03T01:59:53.925Z,84.10
2018-10-03T02:00:32.821Z,84.20
2018-10-03T02:01:11.564Z,84.20
2018-10-03T02:01:50.373Z,84.20
2018-10-03T02:02:28.828Z,84.10
2018-10-03T02:03:08.648Z,84.10
2018-10-03T02:03:48.073Z,84.10
2018-10-03T02:04:31.956Z,84.00
2018-10-03T02:05:11.146Z,84.10
2018-10-03T02:05:51.123Z,84.10
2018-10-03T02:06:31.003Z,84.10
2018-10-03T02:07:10.398Z,84.10
2018-10-03T02:07:49.206Z,84.10
2018-10-03T02:08:27.633Z,84.10
2018-10-03T02:09:07.754Z,84.00
2018-10-03T02:09:47.406Z,84.20
2018-10-03T02:10:25.985Z,84.10
2018-10-03T02:11:04.366Z,84.20
2018-10-03T02:11:42.837Z,84.10
2018-10-03T02:12:21.897Z,84.20
2018-10-03T02:13:00.301Z,84.20
2018-10-03T02:13:39.255Z,84.10
2018-10-03T02:14:17.497Z,84.10
2018-10-03T02:14:56.475Z,84.10
2018-10-03T02:15:35.582Z,84.20
2018-10-03T02:16:14.324Z,84.10
2018-10-03T02:16:52.953Z,84.10
2018-10-03T02:17:31.710Z,84.10
2018-10-03T02:18:11.315Z,84.10
2018-10-03T02:18:50.038Z,84.10
2018-10-03T02:19:28.262Z,84.10
2018-10-03T02:20:07.961Z,84.10
2018-10-03T02:20:47.565Z,84.10
2018-10-03T02:21:26.582Z,84.10
2018-10-03T02:22:05.556Z,84.00
2018-10-03T02:22:45.450Z,84.10
2018-10-03T02:23:23.831Z,84.10
2018-10-03T02:24:03.387Z,84.00
2018-10-03T02:24:41.957Z,84.10
2018-10-03T02:25:23.827Z,84.10
2018-10-03T02:26:02.344Z,84.10
2018-10-03T02:26:42.025Z,84.00
2018-10-03T02:27:21.713Z,84.00
2018-10-03T02:28:00.423Z,84.10
2018-10-03T02:28:38.571Z,84.00
2018-10-03T02:29:16.954Z,84.00
2018-10-03T02:29:57.068Z,84.00
2018-10-03T02:30:35.333Z,84.00
2018-10-03T02:31:13.966Z,83.90
2018-10-03T02:31:53.300Z,83.90
2018-10-03T02:32:32.878Z,83.90
2018-10-03T02:33:12.240Z,83.90
2018-10-03T02:33:53.019Z,83.90
2018-10-03T02:34:31.415Z,84.00
2018-10-03T02:35:10.099Z,83.90
2018-10-03T02:35:48.582Z,84.00
2018-10-03T02:36:26.570Z,84.00
2018-10-03T02:37:05.321Z,84.00
2018-10-03T02:37:44.339Z,84.00
2018-10-03T02:38:23.171Z,83.90
2018-10-03T02:39:01.497Z,83.90
2018-10-03T02:39:40.511Z,83.90
2018-10-03T02:40:19.039Z,83.90
2018-10-03T02:40:57.248Z,83.80
2018-10-03T02:41:35.168Z,83.80
2018-10-03T02:42:13.145Z,83.80
2018-10-03T02:42:51.179Z,83.80
2018-10-03T02:43:30.156Z,83.80
2018-10-03T02:44:08.630Z,83.80
2018-10-03T02:44:47.097Z,83.80
2018-10-03T02:45:25.343Z,83.70
2018-10-03T02:46:04.431Z,83.60
2018-10-03T02:46:42.330Z,83.70
2018-10-03T02:47:20.405Z,83.60
2018-10-03T02:47:58.626Z,83.60
2018-10-03T02:48:36.686Z,83.60
2018-10-03T02:49:15.068Z,83.60
2018-10-03T02:49:53.035Z,83.60
2018-10-03T02:50:32.600Z,83.60
2018-10-03T02:51:11.613Z,83.60
2018-10-03T02:51:51.034Z,83.50
2018-10-03T02:52:30.927Z,83.50
2018-10-03T02:53:09.533Z,83.60
2018-10-03T02:53:47.689Z,83.60
2018-10-03T02:54:26.042Z,83.60
2018-10-03T02:55:04.749Z,84.30
2018-10-03T02:55:43.057Z,83.50
2018-10-03T02:56:22.021Z,83.60
2018-10-03T02:57:00.381Z,83.60
2018-10-03T02:57:38.768Z,83.60
2018-10-03T02:58:18.020Z,83.60
2018-10-03T02:58:56.733Z,84.30
2018-10-03T02:59:35.890Z,83.50
2018-10-03T03:00:14.431Z,83.60
2018-10-03T03:00:53.522Z,83.60
2018-10-03T03:01:32.939Z,83.50
2018-10-03T03:02:11.422Z,83.50
2018-10-03T03:02:50.591Z,83.50
2018-10-03T03:03:28.663Z,83.40
2018-10-03T03:04:06.873Z,83.40
2018-10-03T03:04:45.699Z,83.40
2018-10-03T03:05:23.612Z,83.40
2018-10-03T03:06:01.493Z,83.30
2018-10-03T03:06:39.535Z,83.30
2018-10-03T03:07:17.427Z,83.30
2018-10-03T03:07:56.991Z,83.30
2018-10-03T03:08:35.499Z,83.30
2018-10-03T03:09:15.709Z,83.30
2018-10-03T03:09:54.849Z,83.30
2018-10-03T03:10:33.117Z,83.30
2018-10-03T03:11:12.577Z,83.30
2018-10-03T03:11:50.968Z,83.40
2018-10-03T03:12:29.572Z,83.40
2018-10-03T03:13:08.029Z,83.40
2018-10-03T03:13:46.569Z,84.10
2018-10-03T03:14:24.902Z,83.40
2018-10-03T03:15:03.363Z,83.30
2018-10-03T03:15:41.923Z,83.30
2018-10-03T03:16:20.364Z,83.30
2018-10-03T03:17:02.925Z,83.30
2018-10-03T03:17:41.251Z,83.30
2018-10-03T03:18:19.436Z,83.20
2018-10-03T03:18:57.202Z,83.20
2018-10-03T03:19:35.508Z,83.20
2018-10-03T03:20:13.451Z,83.90
2018-10-03T03:20:52.799Z,83.80
2018-10-03T03:21:31.365Z,83.20
2018-10-03T03:22:10.398Z,83.20
2018-10-03T03:22:49.521Z,83.20
2018-10-03T03:23:28.810Z,83.20
2018-10-03T03:24:08.271Z,83.20
2018-10-03T03:24:46.607Z,83.20
2018-10-03T03:25:26.351Z,83.10
2018-10-03T03:26:04.848Z,83.20
2018-10-03T03:26:44.246Z,83.20
2018-10-03T03:27:25.838Z,83.90
2018-10-03T03:28:04.327Z,83.10
2018-10-03T03:28:42.760Z,83.10
2018-10-03T03:29:20.886Z,83.00
2018-10-03T03:30:00.445Z,83.10
2018-10-03T03:30:38.561Z,83.10
2018-10-03T03:31:16.947Z,83.10
2018-10-03T03:31:55.463Z,83.10
2018-10-03T03:32:33.673Z,83.50
2018-10-03T03:33:12.114Z,83.10
2018-10-03T03:33:53.918Z,83.00
2018-10-03T03:34:32.137Z,82.90
2018-10-03T03:35:10.497Z,83.00
2018-10-03T03:35:48.930Z,83.00
2018-10-03T03:36:26.776Z,82.90
2018-10-03T03:37:06.106Z,82.90
2018-10-03T03:37:45.180Z,82.80
2018-10-03T03:38:23.722Z,82.80
2018-10-03T03:39:03.011Z,82.80
2018-10-03T03:39:41.569Z,82.80
2018-10-03T03:40:19.746Z,82.80
2018-10-03T03:40:58.355Z,82.70
2018-10-03T03:41:36.796Z,82.70
2018-10-03T03:42:14.776Z,82.70
2018-10-03T03:42:52.962Z,82.70
2018-10-03T03:43:32.553Z,82.70
2018-10-03T03:44:11.022Z,82.70
2018-10-03T03:44:49.425Z,82.60
2018-10-03T03:45:27.723Z,82.50
2018-10-03T03:46:10.048Z,82.60
2018-10-03T03:46:47.858Z,82.60
2018-10-03T03:47:29.076Z,82.60
2018-10-03T03:48:07.140Z,82.60
2018-10-03T03:48:47.164Z,83.30
2018-10-03T03:49:25.559Z,82.50
2018-10-03T03:50:06.244Z,82.60
2018-10-03T03:50:45.511Z,82.60
2018-10-03T03:51:25.645Z,82.50
2018-10-03T03:52:03.491Z,82.50
2018-10-03T03:52:42.241Z,82.50
2018-10-03T03:53:20.189Z,82.50
2018-10-03T03:53:58.431Z,82.50
2018-10-03T03:54:36.405Z,82.40
2018-10-03T03:55:14.360Z,82.40
2018-10-03T03:55:52.571Z,82.40
2018-10-03T03:56:31.516Z,82.30
2018-10-03T03:57:10.866Z,82.30
2018-10-03T03:57:49.383Z,82.30
2018-10-03T03:58:27.373Z,82.20
2018-10-03T03:59:06.596Z,82.20
2018-10-03T03:59:44.761Z,82.30
2018-10-03T04:00:22.651Z,82.30
2018-10-03T04:01:00.661Z,82.20
2018-10-03T04:01:38.514Z,82.20
2018-10-03T04:02:16.830Z,82.10
2018-10-03T04:02:54.812Z,82.10
2018-10-03T04:03:32.707Z,82.20
2018-10-03T04:04:10.810Z,82.10
2018-10-03T04:04:50.009Z,82.00
2018-10-03T04:05:28.318Z,82.10
2018-10-03T04:06:06.348Z,82.00
2018-10-03T04:06:44.196Z,82.10
2018-10-03T04:07:22.287Z,81.50
2018-10-03T04:08:00.221Z,81.90
2018-10-03T04:08:38.302Z,81.80
2018-10-03T04:09:18.134Z,82.00
2018-10-03T04:09:56.144Z,81.90
2018-10-03T04:10:34.567Z,81.90
2018-10-03T04:11:12.441Z,81.80
2018-10-03T04:11:50.358Z,81.70
2018-10-03T04:12:28.415Z,81.70
2018-10-03T04:13:07.646Z,81.70
2018-10-03T04:13:45.717Z,81.70
2018-10-03T04:14:23.692Z,81.70
2018-10-03T04:15:01.682Z,81.60
2018-10-03T04:15:40.914Z,81.60
2018-10-03T04:16:18.839Z,82.30
2018-10-03T04:16:58.091Z,81.50
2018-10-03T04:17:35.890Z,81.60
2018-10-03T04:18:56.156Z,81.50
2018-10-03T04:19:33.996Z,81.50
2018-10-03T04:20:11.933Z,81.40
2018-10-03T04:20:50.820Z,81.40
2018-10-03T04:21:33.532Z,81.30
2018-10-03T04:22:11.365Z,81.30
2018-10-03T04:22:49.213Z,81.40
2018-10-03T04:23:27.080Z,81.30
2018-10-03T04:24:04.922Z,81.30
2018-10-03T04:24:43.526Z,81.30
2018-10-03T04:25:22.837Z,81.20
2018-10-03T04:26:03.035Z,81.30
2018-10-03T04:26:42.053Z,81.20
2018-10-03T04:27:20.573Z,81.20
2018-10-03T04:27:59.230Z,81.10
2018-10-03T04:28:37.174Z,81.20
2018-10-03T04:29:15.247Z,81.20
2018-10-03T04:29:54.104Z,81.30
2018-10-03T04:30:32.305Z,81.20
2018-10-03T04:31:10.193Z,81.70
2018-10-03T04:31:48.068Z,81.20
2018-10-03T04:32:25.935Z,81.10
2018-10-03T04:33:04.803Z,81.10
2018-10-03T04:33:43.189Z,81.20
2018-10-03T04:34:21.063Z,81.10
2018-10-03T04:35:00.082Z,81.20
2018-10-03T04:35:38.678Z,81.00
2018-10-03T04:36:17.749Z,81.00
2018-10-03T04:36:56.469Z,81.00
2018-10-03T04:37:34.468Z,81.00
2018-10-03T04:38:12.547Z,81.10
2018-10-03T04:38:50.808Z,80.90
2018-10-03T04:39:29.604Z,81.00
2018-10-03T04:40:07.475Z,81.20
2018-10-03T04:40:46.104Z,81.10
2018-10-03T04:41:24.261Z,81.00
2018-10-03T04:42:02.812Z,81.10
2018-10-03T04:42:40.844Z,81.10
2018-10-03T04:43:19.183Z,81.00
2018-10-03T04:43:57.473Z,81.10
2018-10-03T04:44:37.250Z,80.90
2018-10-03T04:45:15.441Z,81.00
2018-10-03T04:45:53.959Z,80.90
2018-10-03T04:46:32.324Z,80.80
2018-10-03T04:47:11.577Z,80.80
2018-10-03T04:47:49.712Z,80.70
2018-10-03T04:48:28.836Z,80.80
2018-10-03T04:49:07.185Z,80.70
2018-10-03T04:49:45.231Z,80.70
2018-10-03T04:50:25.032Z,80.70
2018-10-03T04:51:04.617Z,80.70
2018-10-03T04:51:43.318Z,80.80
2018-10-03T04:52:21.394Z,80.80
2018-10-03T04:52:59.558Z,80.70
2018-10-03T04:53:37.635Z,81.40
2018-10-03T04:54:16.538Z,80.60
2018-10-03T04:54:54.689Z,80.80
2018-10-03T04:55:33.114Z,80.70
2018-10-03T04:56:12.182Z,80.70
2018-10-03T04:56:53.856Z,80.70
2018-10-03T04:57:33.190Z,80.50
2018-10-03T04:58:11.800Z,80.60
2018-10-03T04:58:50.160Z,80.50
2018-10-03T04:59:29.154Z,81.20
2018-10-03T05:00:08.206Z,80.60
2018-10-03T05:00:46.734Z,80.50
2018-10-03T05:01:26.284Z,80.50
2018-10-03T05:02:05.772Z,80.50
2018-10-03T05:02:45.081Z,80.60
2018-10-03T05:03:23.325Z,80.50
2018-10-03T05:04:01.442Z,80.50
2018-10-03T05:04:40.579Z,80.60
2018-10-03T05:05:18.921Z,80.50
2018-10-03T05:05:57.376Z,80.50
2018-10-03T05:06:35.624Z,80.50
2018-10-03T05:07:14.604Z,80.50
2018-10-03T05:07:53.669Z,80.40
2018-10-03T05:08:32.148Z,80.50
2018-10-03T05:09:11.725Z,80.40
2018-10-03T05:09:50.703Z,80.40
2018-10-03T05:10:30.290Z,80.50
2018-10-03T05:11:09.037Z,80.30
2018-10-03T05:11:47.394Z,80.30
2018-10-03T05:12:25.673Z,80.30
2018-10-03T05:13:04.037Z,80.30
2018-10-03T05:13:45.220Z,80.30
2018-10-03T05:14:24.308Z,80.30
2018-10-03T05:15:03.421Z,80.30
2018-10-03T05:15:41.782Z,80.30
2018-10-03T05:16:20.602Z,80.40
2018-10-03T05:16:59.191Z,80.50
2018-10-03T05:17:38.640Z,80.50
2018-10-03T05:18:16.935Z,80.60
2018-10-03T05:18:54.850Z,80.40
2018-10-03T05:19:33.043Z,80.80
2018-10-03T05:20:12.454Z,81.10
2018-10-03T05:20:50.380Z,80.70
2018-10-03T05:21:28.311Z,80.60
2018-10-03T05:22:06.245Z,80.30
2018-10-03T05:22:44.229Z,80.30
2018-10-03T05:23:22.156Z,80.30
2018-10-03T05:24:00.024Z,80.40
2018-10-03T05:24:38.655Z,80.30
2018-10-03T05:25:17.995Z,80.30
2018-10-03T05:25:57.266Z,80.30
2018-10-03T05:26:36.015Z,80.70
2018-10-03T05:27:15.137Z,80.50
2018-10-03T05:27:53.529Z,80.40
2018-10-03T05:28:31.779Z,80.30
2018-10-03T05:29:10.760Z,80.20
2018-10-03T05:29:49.222Z,80.40
2018-10-03T05:30:27.367Z,80.00
2018-10-03T05:31:05.752Z,80.30
2018-10-03T05:31:44.622Z,80.30
2018-10-03T05:32:24.886Z,80.10
2018-10-03T05:33:02.790Z,80.30
2018-10-03T05:33:40.933Z,80.10
2018-10-03T05:34:19.079Z,80.90
2018-10-03T05:34:57.128Z,80.30
2018-10-03T05:35:35.220Z,80.70
2018-10-03T05:36:13.214Z,80.40
2018-10-03T05:36:51.102Z,80.30
2018-10-03T05:37:30.659Z,80.00
2018-10-03T05:38:09.575Z,80.50
2018-10-03T05:38:47.400Z,80.30
2018-10-03T05:39:25.364Z,80.90
2018-10-03T05:40:03.382Z,80.00
2018-10-03T05:40:41.250Z,80.10
2018-10-03T05:41:19.413Z,80.10
2018-10-03T05:41:57.566Z,80.20
2018-10-03T05:42:36.047Z,80.30
2018-10-03T05:43:14.618Z,80.00
2018-10-03T05:43:53.271Z,80.10
2018-10-03T05:44:31.418Z,80.00
2018-10-03T05:45:09.592Z,79.30
2018-10-03T05:45:47.478Z,80.30
2018-10-03T05:46:26.262Z,80.60
2018-10-03T05:47:05.113Z,80.40
2018-10-03T05:47:43.044Z,80.20
2018-10-03T05:48:22.441Z,80.00
2018-10-03T05:49:00.381Z,80.10
2018-10-03T05:49:39.773Z,80.10
2018-10-03T05:50:18.005Z,80.20
2018-10-03T05:50:57.008Z,80.70
2018-10-03T05:51:35.388Z,80.60
2018-10-03T05:52:14.372Z,80.60
2018-10-03T05:52:52.460Z,80.40
2018-10-03T05:53:30.463Z,80.60
2018-10-03T05:54:08.380Z,80.40
2018-10-03T05:54:46.552Z,80.30
2018-10-03T05:55:24.447Z,80.40
2018-10-03T05:56:02.388Z,80.30
2018-10-03T05:56:40.385Z,80.20
2018-10-03T05:57:19.505Z,80.30
2018-10-03T05:57:58.652Z,80.60
2018-10-03T05:58:39.322Z,80.20
2018-10-03T05:59:17.221Z,80.40
2018-10-03T05:59:55.034Z,80.30
2018-10-03T06:00:33.039Z,80.30
2018-10-03T06:01:11.128Z,80.50
2018-10-03T06:01:51.054Z,80.40
2018-10-03T06:02:29.466Z,80.70
2018-10-03T06:03:08.319Z,80.40
2018-10-03T06:03:49.848Z,80.30
2018-10-03T06:04:27.922Z,80.30
2018-10-03T06:05:06.747Z,80.10
2018-10-03T06:05:45.769Z,80.20
2018-10-03T06:06:23.945Z,80.00
2018-10-03T06:07:01.933Z,79.90
2018-10-03T06:07:39.793Z,80.30
2018-10-03T06:08:17.887Z,80.30
2018-10-03T06:08:56.245Z,80.70
2018-10-03T06:09:34.148Z,80.60
2018-10-03T06:10:12.156Z,80.30
2018-10-03T06:10:50.130Z,80.40
2018-10-03T06:11:28.238Z,80.60
2018-10-03T06:12:06.094Z,80.70
2018-10-03T06:12:44.007Z,80.40
2018-10-03T06:13:21.914Z,80.10
2018-10-03T06:14:00.107Z,80.20
2018-10-03T06:14:37.967Z,80.20
2018-10-03T06:15:15.799Z,80.30
2018-10-03T06:15:53.941Z,80.00
2018-10-03T06:16:32.004Z,80.20
2018-10-03T06:17:10.026Z,79.90
2018-10-03T06:17:47.977Z,79.80
2018-10-03T06:18:26.141Z,79.90
2018-10-03T06:19:04.111Z,80.00
2018-10-03T06:19:42.475Z,80.00
2018-10-03T06:20:20.383Z,80.00
2018-10-03T06:20:58.289Z,80.20
2018-10-03T06:21:36.712Z,80.30
2018-10-03T06:22:15.380Z,80.20
2018-10-03T06:22:53.437Z,79.90
2018-10-03T06:23:31.465Z,80.00
2018-10-03T06:24:09.950Z,79.90
2018-10-03T06:24:48.344Z,80.00
2018-10-03T06:25:26.292Z,79.80
2018-10-03T06:26:04.939Z,79.80
2018-10-03T06:26:43.047Z,80.00
2018-10-03T06:27:21.511Z,79.90
2018-10-03T06:28:00.779Z,80.00
2018-10-03T06:28:39.220Z,79.70
2018-10-03T06:29:18.293Z,79.80
2018-10-03T06:29:56.642Z,79.80
2018-10-03T06:30:36.345Z,80.00
2018-10-03T06:31:15.812Z,80.00
2018-10-03T06:31:55.994Z,80.10
2018-10-03T06:32:34.642Z,80.10
2018-10-03T06:33:12.936Z,80.20
2018-10-03T06:33:51.128Z,79.90
2018-10-03T06:34:29.068Z,79.80
2018-10-03T06:35:07.000Z,79.80
2018-10-03T06:35:45.308Z,79.90
2018-10-03T06:36:24.023Z,79.70
2018-10-03T06:37:03.280Z,79.70
2018-10-03T06:37:43.418Z,79.70
2018-10-03T06:38:21.672Z,79.70
2018-10-03T06:38:59.940Z,79.80
2018-10-03T06:39:38.854Z,79.70
2018-10-03T06:40:17.130Z,79.70
2018-10-03T06:40:55.338Z,79.70
2018-10-03T06:41:33.517Z,79.80
2018-10-03T06:42:11.525Z,79.90
2018-10-03T06:42:49.529Z,79.70
2018-10-03T06:43:27.802Z,79.80
2018-10-03T06:44:07.016Z,79.90
2018-10-03T06:44:46.425Z,79.70
2018-10-03T06:45:25.238Z,79.70
2018-10-03T06:46:05.043Z,79.70
2018-10-03T06:46:43.671Z,79.70
2018-10-03T06:47:21.919Z,79.80
2018-10-03T06:47:59.861Z,79.70
2018-10-03T06:48:38.514Z,79.60
2018-10-03T06:49:17.469Z,79.70
2018-10-03T06:49:55.877Z,79.80
2018-10-03T06:50:35.330Z,79.70
2018-10-03T06:51:13.968Z,79.90
2018-10-03T06:51:52.510Z,79.80
2018-10-03T06:52:30.842Z,79.50
2018-10-03T06:53:10.293Z,79.40
2018-10-03T06:53:48.554Z,79.60
2018-10-03T06:54:26.691Z,79.70
2018-10-03T06:55:05.036Z,79.70
2018-10-03T06:55:43.438Z,79.60
2018-10-03T06:56:22.714Z,79.60
2018-10-03T06:57:01.192Z,79.60
2018-10-03T06:57:46.265Z,79.70
2018-10-03T06:58:24.373Z,79.60
2018-10-03T06:59:03.884Z,79.60
2018-10-03T06:59:41.912Z,79.60
2018-10-03T07:00:20.366Z,79.50
2018-10-03T07:00:58.698Z,79.60
2018-10-03T07:01:36.584Z,79.70
2018-10-03T07:02:16.061Z,79.50
2018-10-03T07:02:55.636Z,79.50
2018-10-03T07:03:34.123Z,79.50
2018-10-03T07:04:12.328Z,79.10
2018-10-03T07:04:52.059Z,79.20
2018-10-03T07:05:30.405Z,79.30
2018-10-03T07:06:09.547Z,79.50
2018-10-03T07:06:47.998Z,79.40
2018-10-03T07:07:26.575Z,79.30
2018-10-03T07:08:05.163Z,79.40
2018-10-03T07:08:44.244Z,79.30
2018-10-03T07:09:22.725Z,79.40
2018-10-03T07:10:01.110Z,79.30
2018-10-03T07:10:39.157Z,79.30
2018-10-03T07:11:17.514Z,79.40
2018-10-03T07:11:56.738Z,79.40
2018-10-03T07:12:35.400Z,79.40
2018-10-03T07:13:13.683Z,79.40
2018-10-03T07:13:52.959Z,79.30
2018-10-03T07:14:34.183Z,79.10
2018-10-03T07:15:12.105Z,79.10
2018-10-03T07:15:51.892Z,79.20
2018-10-03T07:16:29.919Z,79.20
2018-10-03T07:17:08.329Z,79.30
2018-10-03T07:17:46.157Z,79.20
2018-10-03T07:18:24.118Z,79.20
2018-10-03T07:19:03.300Z,79.20
2018-10-03T07:19:41.713Z,79.20
2018-10-03T07:20:19.727Z,79.00
2018-10-03T07:20:59.369Z,79.10
2018-10-03T07:21:38.652Z,79.20
2018-10-03T07:22:23.686Z,79.20
2018-10-03T07:23:08.104Z,79.10
2018-10-03T07:23:46.434Z,79.10
2018-10-03T07:24:24.897Z,78.90
2018-10-03T07:25:03.645Z,78.60
2018-10-03T07:25:41.894Z,78.60
2018-10-03T07:26:21.512Z,78.80
2018-10-03T07:26:59.792Z,78.80
2018-10-03T07:27:38.308Z,79.10
2018-10-03T07:28:16.810Z,79.00
2018-10-03T07:28:55.267Z,78.90
2018-10-03T07:29:33.772Z,78.90
2018-10-03T07:30:12.950Z,78.80
2018-10-03T07:30:52.395Z,78.90
2018-10-03T07:31:30.906Z,78.90
2018-10-03T07:32:09.368Z,78.90
2018-10-03T07:32:47.881Z,78.90
2018-10-03T07:33:27.563Z,78.80
2018-10-03T07:34:08.059Z,78.80
2018-10-03T07:34:47.838Z,78.80
2018-10-03T07:35:25.956Z,79.70
2018-10-03T07:36:04.940Z,78.80
2018-10-03T07:36:43.134Z,78.90
2018-10-03T07:37:22.532Z,78.80
2018-10-03T07:38:00.691Z,78.80
2018-10-03T07:38:39.256Z,78.80
2018-10-03T07:39:17.684Z,78.90
2018-10-03T07:39:56.377Z,78.90
2018-10-03T07:40:35.731Z,78.80
2018-10-03T07:41:13.984Z,78.90
2018-10-03T07:41:52.480Z,78.80
2018-10-03T07:42:30.928Z,78.70
2018-10-03T07:43:09.437Z,78.80
2018-10-03T07:43:47.441Z,78.80
2018-10-03T07:44:26.620Z,79.40
2018-10-03T07:45:04.502Z,78.90
2018-10-03T07:45:42.769Z,78.60
2018-10-03T07:46:21.049Z,78.70
2018-10-03T07:47:00.101Z,78.70
2018-10-03T07:47:38.346Z,78.80
2018-10-03T07:48:16.628Z,78.70
2018-10-03T07:48:57.262Z,78.70
2018-10-03T07:49:35.202Z,78.80
2018-10-03T07:50:13.087Z,78.90
2018-10-03T07:50:52.061Z,78.90
2018-10-03T07:51:30.284Z,78.90
2018-10-03T07:52:09.382Z,79.00
2018-10-03T07:52:47.951Z,79.00
2018-10-03T07:53:26.550Z,78.90
2018-10-03T07:54:04.502Z,79.00
2018-10-03T07:54:42.561Z,79.00
2018-10-03T07:55:21.724Z,79.10
2018-10-03T07:55:59.862Z,78.90
2018-10-03T07:56:39.831Z,78.90
2018-10-03T07:57:18.129Z,79.50
2018-10-03T07:57:56.012Z,78.70
2018-10-03T07:58:34.400Z,78.70
2018-10-03T07:59:12.442Z,78.60
2018-10-03T07:59:50.364Z,78.60
2018-10-03T08:00:32.610Z,78.60
2018-10-03T08:01:10.675Z,78.60
2018-10-03T08:01:48.564Z,78.60
2018-10-03T08:02:28.238Z,78.60
2018-10-03T08:03:11.497Z,78.50
2018-10-03T08:03:49.691Z,78.50
2018-10-03T08:04:28.114Z,78.60
2018-10-03T08:05:06.700Z,78.60
2018-10-03T08:05:45.619Z,78.60
2018-10-03T08:06:27.194Z,78.60
2018-10-03T08:07:05.083Z,78.60
2018-10-03T08:07:43.057Z,78.50
2018-10-03T08:08:20.990Z,78.50
2018-10-03T08:08:58.991Z,78.60
2018-10-03T08:09:37.139Z,78.70
2018-10-03T08:10:16.042Z,78.60
2018-10-03T08:10:55.922Z,79.30
2018-10-03T08:11:33.984Z,78.60
2018-10-03T08:12:12.364Z,78.60
2018-10-03T08:12:53.342Z,78.60
2018-10-03T08:13:32.514Z,78.60
2018-10-03T08:14:11.246Z,78.60
2018-10-03T08:14:49.141Z,78.60
2018-10-03T08:15:27.033Z,78.50
2018-10-03T08:16:07.978Z,78.50
2018-10-03T08:16:48.472Z,78.40
2018-10-03T08:17:26.344Z,78.40
2018-10-03T08:18:04.510Z,78.40
2018-10-03T08:18:42.381Z,78.50